Hlavní strana
METAR-TAF:

METAR-TAF

Letiště :

Almería, Španělsko

zeměpisná šířka: 36-51N, zeměpisná délka: 002-23W, výška: 15 m

Aktuální stav počasí

Zpráva byla vytvořena před 47 minutami, v 23:30 UTC
Severoseverovýchodní vítr 6 kt
Teplota 9°C
Vlhkost vzduchu 71%
Tlak 1023 hPa
Viditelnost 10 km a více
Žádná oblačnost pod 1500 m, nevyskytují se cumulonimby.

METAR: LEAM 152330Z AUTO 02006KT CAVOK 09/04 Q1023

Čas: 01:17 (00:17 UTC)

Předpověď počasí

Zpráva byla vytvořena před 4 hodinami a 17 minutami, v 20:00 UTC
Předpověď platná od 15 v 21 UTC do 16 v 21 UTC
Severoseverozápadní vítr 6 kt
Viditelnost 10 km a více
Žádná oblačnost pod 1500 m, nevyskytují se cumulonimby.
Změna
od 16 v 08 UTC do 16 v 11 UTC
Východní vítr 10 kt
Změna
od 16 v 18 UTC do 16 v 21 UTC
Severoseverozápadní vítr 8 kt

TAF: LEAM 152000Z 1521/1621 34006KT CAVOK TX16/1613Z TN07/1607Z BECMG 1608/1611 09010KT BECMG 1618/1621 34008KT

Stav a předpovědi počasí z více než 4 000 letišť (zprávy METAR a TAF).

Červené a žluté tečky na mapě představují dostupné meteorologické stanice.

Když kurzor umístíte na tečku, zobrazí se název stanice.

Pak kliknutím zobrazíte stav a předpověď počasí.

Chcete-li změnit mapu, kliknutím na zelené tlačítko se znaménkem +mapu přiblížíte, kliknutím na zelené tlačítko se znaménkem – mapu oddálíte a kliknutím na zelené šipky přejdete na sousední mapy.


METAR-TAF: